Glen Hope, PA (16645)

6:30 PM EDT on March 26, 2017 (GMT -0400)
The Garden | | Change Station

Elev 1578 ft 40.79 °N, 78.37 °W | Updated 6 seconds ago

Overcast
Overcast
42.4 °F
Feels Like 40 °F
N
4.3
Wind Variable Wind from ENE
Gusts 7.4 mph

Today
High -- | Low -- °F
--% Chance of Precip.
Yesterday
High -- | Low -- °F
Precip. -- in
Pressure 30.09 in
Visibility 5.0 miles
Clouds Overcast 900 ft
Windchill 40 °F
Dew Point 25 °F
Humidity 50%
Rainfall 0.00 in
Snow Depth Not available.
7:06 AM 7:32 PM
Waning Crescent, 2% visible
METAR KDUJ 262153Z AUTO 13011G19KT 5SM HZ OVC009 07/04 A3007 RMK AO2 RAB2059E11 SLP189 P0000 T00720044 $
Pressure 30.09 in
Visibility 5.0 miles
Clouds Overcast 900 ft
Windchill 40 °F
Dew Point 25 °F
Humidity 50%
Rainfall 0.00 in
Snow Depth Not available.
7:06 AM 7:32 PM
Waning Crescent, 2% visible
METAR KDUJ 262153Z AUTO 13011G19KT 5SM HZ OVC009 07/04 A3007 RMK AO2 RAB2059E11 SLP189 P0000 T00720044 $

Get Severe Weather Alerts

Thanks for signing up!

Be on the lookout for a verification email in your inbox.

You'll start receiving the daily forecast at 8 AM.

×

10-Day Weather Forecast

Almanac

Astronomy

Mar. 26, 2017 Rise Set
Actual Time
Civil Twilight
Nautical Twilight
Astronomical Twilight
Moon
Length of Visible Light
Length of Day
Tomorrow will be .
, % of the Moon is Illuminated

Today's Extremes

State Highs State Lows

Community

WunderPhotos

Upload Photos

1,962,540 photos uploaded!

WunderBlog® & News

Nearby

Air Quality

  Air Quality AQ Index Pollutant
Not available.

Snow Depth

Station Depth Elevation

Earthquake Activity

City Distance Mag. Time & Date
Minimum magnitude displayed is 2.5.

Earthquake Activity

City Distance Mag. Time & Date
Minimum magnitude displayed is 2.5.

Coastal Water Temperatures

Place Temperature

Stations

Nearby Weather Stations

Station Location Temp. Windchill Dew Point Humidity Wind Precip. Elev Updated Type
                   

Watches & Warnings

There are currently no watches in effect.